sensor_id;sensor_type;location;lat;lon;timestamp;pressure;altitude;pressure_sealevel;temperature;humidity
49657;BME280;71194;38.900;-77.124;2023-10-13T00:02:25;99851.72;;;19.81;39.95
49657;BME280;71194;38.900;-77.124;2023-10-13T00:04:53;99854.45;;;20.27;39.84
49657;BME280;71194;38.900;-77.124;2023-10-13T00:07:21;99860.81;;;19.96;40.33
49657;BME280;71194;38.900;-77.124;2023-10-13T00:09:49;99865.45;;;19.74;40.33
49657;BME280;71194;38.900;-77.124;2023-10-13T00:12:17;99865.14;;;20.05;40.25
49657;BME280;71194;38.900;-77.124;2023-10-13T00:14:46;99865.41;;;20.18;40.29
49657;BME280;71194;38.900;-77.124;2023-10-13T00:17:15;99865.45;;;19.85;40.75
49657;BME280;71194;38.900;-77.124;2023-10-13T00:19:43;99863.37;;;19.72;41.43
49657;BME280;71194;38.900;-77.124;2023-10-13T00:22:11;99867.17;;;19.66;41.68
49657;BME280;71194;38.900;-77.124;2023-10-13T00:24:40;99871.31;;;19.90;41.52
49657;BME280;71194;38.900;-77.124;2023-10-13T00:27:09;99872.31;;;19.36;41.33
49657;BME280;71194;38.900;-77.124;2023-10-13T00:29:37;99875.99;;;19.85;41.40
49657;BME280;71194;38.900;-77.124;2023-10-13T00:32:05;99878.12;;;19.76;41.31
49657;BME280;71194;38.900;-77.124;2023-10-13T00:34:38;99885.87;;;19.73;41.49
49657;BME280;71194;38.900;-77.124;2023-10-13T00:37:06;99893.78;;;19.71;41.53
49657;BME280;71194;38.900;-77.124;2023-10-13T00:39:34;99902.52;;;19.63;41.59
49657;BME280;71194;38.900;-77.124;2023-10-13T00:42:02;99910.42;;;19.18;42.45
49657;BME280;71194;38.900;-77.124;2023-10-13T00:44:30;99912.23;;;19.45;42.33
49657;BME280;71194;38.900;-77.124;2023-10-13T00:46:58;99914.92;;;19.32;42.89
49657;BME280;71194;38.900;-77.124;2023-10-13T00:49:26;99919.46;;;19.10;43.62
49657;BME280;71194;38.900;-77.124;2023-10-13T00:51:54;99925.14;;;19.12;43.89
49657;BME280;71194;38.900;-77.124;2023-10-13T00:54:22;99930.71;;;19.20;43.53
49657;BME280;71194;38.900;-77.124;2023-10-13T00:56:51;99928.77;;;19.06;43.81
49657;BME280;71194;38.900;-77.124;2023-10-13T00:59:19;99924.52;;;18.88;44.45
49657;BME280;71194;38.900;-77.124;2023-10-13T01:01:47;99921.93;;;18.81;45.15
49657;BME280;71194;38.900;-77.124;2023-10-13T01:04:15;99923.49;;;18.66;45.63
49657;BME280;71194;38.900;-77.124;2023-10-13T01:06:43;99920.08;;;18.66;45.91
49657;BME280;71194;38.900;-77.124;2023-10-13T01:09:11;99921.35;;;18.49;45.81
49657;BME280;71194;38.900;-77.124;2023-10-13T01:11:41;99921.33;;;18.89;45.22
49657;BME280;71194;38.900;-77.124;2023-10-13T01:14:10;99922.16;;;19.13;45.40
49657;BME280;71194;38.900;-77.124;2023-10-13T01:16:38;99917.86;;;18.77;45.63
49657;BME280;71194;38.900;-77.124;2023-10-13T01:19:06;99914.17;;;18.73;45.49
49657;BME280;71194;38.900;-77.124;2023-10-13T01:21:34;99911.10;;;18.94;46.04
49657;BME280;71194;38.900;-77.124;2023-10-13T01:24:02;99917.50;;;18.76;45.57
49657;BME280;71194;38.900;-77.124;2023-10-13T01:26:30;99919.81;;;18.78;45.29
49657;BME280;71194;38.900;-77.124;2023-10-13T01:28:58;99928.26;;;18.62;44.64
49657;BME280;71194;38.900;-77.124;2023-10-13T01:31:26;99937.25;;;18.63;44.30
49657;BME280;71194;38.900;-77.124;2023-10-13T01:33:54;99938.98;;;18.76;44.10
49657;BME280;71194;38.900;-77.124;2023-10-13T01:36:23;99944.43;;;18.61;44.84
49657;BME280;71194;38.900;-77.124;2023-10-13T01:38:50;99951.55;;;18.56;44.86
49657;BME280;71194;38.900;-77.124;2023-10-13T01:41:19;99950.56;;;18.54;44.93
49657;BME280;71194;38.900;-77.124;2023-10-13T01:43:47;99955.56;;;18.59;44.46
49657;BME280;71194;38.900;-77.124;2023-10-13T01:46:15;99954.64;;;18.78;44.44
49657;BME280;71194;38.900;-77.124;2023-10-13T01:48:43;99950.58;;;18.52;44.28
49657;BME280;71194;38.900;-77.124;2023-10-13T01:51:12;99948.71;;;18.76;44.14
49657;BME280;71194;38.900;-77.124;2023-10-13T01:53:40;99943.12;;;18.44;44.98
49657;BME280;71194;38.900;-77.124;2023-10-13T01:56:08;99943.11;;;18.18;45.32
49657;BME280;71194;38.900;-77.124;2023-10-13T01:58:38;99943.02;;;18.51;44.37
49657;BME280;71194;38.900;-77.124;2023-10-13T02:01:07;99950.38;;;18.47;44.15
49657;BME280;71194;38.900;-77.124;2023-10-13T02:03:35;99955.07;;;18.15;45.22
49657;BME280;71194;38.900;-77.124;2023-10-13T02:06:03;99959.89;;;18.05;45.49
49657;BME280;71194;38.900;-77.124;2023-10-13T02:08:32;99967.83;;;17.94;45.93
49657;BME280;71194;38.900;-77.124;2023-10-13T02:11:00;99970.34;;;18.01;46.00
49657;BME280;71194;38.900;-77.124;2023-10-13T02:13:28;99969.21;;;18.06;45.99
49657;BME280;71194;38.900;-77.124;2023-10-13T02:15:57;99969.51;;;18.02;45.90
49657;BME280;71194;38.900;-77.124;2023-10-13T02:18:25;99971.12;;;17.85;46.38
49657;BME280;71194;38.900;-77.124;2023-10-13T02:20:53;99969.00;;;17.83;46.58
49657;BME280;71194;38.900;-77.124;2023-10-13T02:23:22;99962.79;;;17.67;46.93
49657;BME280;71194;38.900;-77.124;2023-10-13T02:25:49;99960.92;;;17.58;47.43
49657;BME280;71194;38.900;-77.124;2023-10-13T02:28:18;99961.77;;;17.82;47.67
49657;BME280;71194;38.900;-77.124;2023-10-13T02:30:46;99961.43;;;17.55;47.90
49657;BME280;71194;38.900;-77.124;2023-10-13T02:33:15;99961.39;;;17.65;48.03
49657;BME280;71194;38.900;-77.124;2023-10-13T02:35:43;99958.13;;;17.34;48.43
49657;BME280;71194;38.900;-77.124;2023-10-13T02:38:11;99961.85;;;17.25;48.85
49657;BME280;71194;38.900;-77.124;2023-10-13T02:40:39;99960.99;;;17.23;48.82
49657;BME280;71194;38.900;-77.124;2023-10-13T02:43:06;99965.97;;;17.25;48.81
49657;BME280;71194;38.900;-77.124;2023-10-13T02:45:34;99970.88;;;17.29;48.78
49657;BME280;71194;38.900;-77.124;2023-10-13T02:48:03;99961.18;;;17.29;48.59
49657;BME280;71194;38.900;-77.124;2023-10-13T02:50:31;99951.33;;;17.43;48.59
49657;BME280;71194;38.900;-77.124;2023-10-13T02:52:58;99953.77;;;17.65;48.59
49657;BME280;71194;38.900;-77.124;2023-10-13T02:55:26;99954.69;;;17.52;48.12
49657;BME280;71194;38.900;-77.124;2023-10-13T02:57:54;99953.84;;;17.90;47.85
49657;BME280;71194;38.900;-77.124;2023-10-13T03:00:22;99952.52;;;17.46;47.76
49657;BME280;71194;38.900;-77.124;2023-10-13T03:02:50;99949.44;;;17.48;48.13
49657;BME280;71194;38.900;-77.124;2023-10-13T03:05:18;99948.43;;;17.53;48.34
49657;BME280;71194;38.900;-77.124;2023-10-13T03:07:46;99947.76;;;17.85;48.35
49657;BME280;71194;38.900;-77.124;2023-10-13T03:10:14;99944.92;;;18.10;48.50
49657;BME280;71194;38.900;-77.124;2023-10-13T03:12:42;99946.99;;;17.74;48.30
49657;BME280;71194;38.900;-77.124;2023-10-13T03:15:10;99949.89;;;17.60;48.90
49657;BME280;71194;38.900;-77.124;2023-10-13T03:17:38;99956.41;;;17.73;49.49
49657;BME280;71194;38.900;-77.124;2023-10-13T03:20:07;99953.13;;;17.69;49.71
49657;BME280;71194;38.900;-77.124;2023-10-13T03:22:35;99951.93;;;17.60;49.94
49657;BME280;71194;38.900;-77.124;2023-10-13T03:25:03;99949.11;;;17.37;50.22
49657;BME280;71194;38.900;-77.124;2023-10-13T03:27:33;99952.45;;;17.37;50.56
49657;BME280;71194;38.900;-77.124;2023-10-13T03:30:01;99953.23;;;17.56;50.78
49657;BME280;71194;38.900;-77.124;2023-10-13T03:32:28;99963.58;;;17.36;50.89
49657;BME280;71194;38.900;-77.124;2023-10-13T03:34:56;99965.16;;;17.46;50.46
49657;BME280;71194;38.900;-77.124;2023-10-13T03:37:24;99960.78;;;17.44;50.34
49657;BME280;71194;38.900;-77.124;2023-10-13T03:39:52;99957.76;;;17.30;50.81
49657;BME280;71194;38.900;-77.124;2023-10-13T03:42:19;99959.95;;;17.43;51.19
49657;BME280;71194;38.900;-77.124;2023-10-13T03:44:48;99960.57;;;17.35;51.61
49657;BME280;71194;38.900;-77.124;2023-10-13T03:47:16;99968.81;;;17.28;51.88
49657;BME280;71194;38.900;-77.124;2023-10-13T03:49:44;99968.15;;;17.59;51.64
49657;BME280;71194;38.900;-77.124;2023-10-13T03:52:12;99965.67;;;17.27;51.81
49657;BME280;71194;38.900;-77.124;2023-10-13T03:54:40;99956.50;;;17.56;51.81
49657;BME280;71194;38.900;-77.124;2023-10-13T03:57:08;99953.11;;;17.53;51.86
49657;BME280;71194;38.900;-77.124;2023-10-13T03:59:36;99951.38;;;17.17;52.20
49657;BME280;71194;38.900;-77.124;2023-10-13T04:02:04;99955.92;;;17.12;52.38
49657;BME280;71194;38.900;-77.124;2023-10-13T04:04:32;99953.29;;;17.35;52.46
49657;BME280;71194;38.900;-77.124;2023-10-13T04:07:01;99955.59;;;17.09;52.58
49657;BME280;71194;38.900;-77.124;2023-10-13T04:09:28;99954.90;;;17.41;52.40
49657;BME280;71194;38.900;-77.124;2023-10-13T04:11:56;99949.34;;;17.25;51.87
49657;BME280;71194;38.900;-77.124;2023-10-13T04:14:24;99944.39;;;17.56;51.64
49657;BME280;71194;38.900;-77.124;2023-10-13T04:16:52;99947.25;;;17.26;51.77
49657;BME280;71194;38.900;-77.124;2023-10-13T04:19:20;99947.93;;;17.54;51.71
49657;BME280;71194;38.900;-77.124;2023-10-13T04:21:49;99952.03;;;17.19;51.86
49657;BME280;71194;38.900;-77.124;2023-10-13T04:24:17;99955.76;;;17.39;52.08
49657;BME280;71194;38.900;-77.124;2023-10-13T04:26:47;99955.67;;;17.24;52.75
49657;BME280;71194;38.900;-77.124;2023-10-13T04:29:16;99960.50;;;17.32;52.86
49657;BME280;71194;38.900;-77.124;2023-10-13T04:31:44;99966.59;;;17.54;52.39
49657;BME280;71194;38.900;-77.124;2023-10-13T04:34:12;99969.57;;;17.58;52.19
49657;BME280;71194;38.900;-77.124;2023-10-13T04:36:40;99975.32;;;17.59;52.08
49657;BME280;71194;38.900;-77.124;2023-10-13T04:39:08;99979.23;;;17.53;52.19
49657;BME280;71194;38.900;-77.124;2023-10-13T04:41:37;99980.95;;;17.45;52.38
49657;BME280;71194;38.900;-77.124;2023-10-13T04:44:05;99979.09;;;17.45;52.60
49657;BME280;71194;38.900;-77.124;2023-10-13T04:46:34;99976.79;;;17.40;52.61
49657;BME280;71194;38.900;-77.124;2023-10-13T04:49:02;99977.60;;;17.44;52.56
49657;BME280;71194;38.900;-77.124;2023-10-13T04:51:30;99976.24;;;17.45;52.84
49657;BME280;71194;38.900;-77.124;2023-10-13T04:53:58;99980.02;;;17.48;52.72
49657;BME280;71194;38.900;-77.124;2023-10-13T04:56:26;99984.05;;;17.33;52.39
49657;BME280;71194;38.900;-77.124;2023-10-13T04:58:54;99987.25;;;17.46;52.21
49657;BME280;71194;38.900;-77.124;2023-10-13T05:01:21;99989.04;;;17.88;51.91
49657;BME280;71194;38.900;-77.124;2023-10-13T05:03:50;99988.72;;;17.56;51.63
49657;BME280;71194;38.900;-77.124;2023-10-13T05:06:18;99991.66;;;17.73;50.88
49657;BME280;71194;38.900;-77.124;2023-10-13T05:08:46;99994.83;;;18.13;50.20
49657;BME280;71194;38.900;-77.124;2023-10-13T05:11:14;99990.75;;;18.27;49.73
49657;BME280;71194;38.900;-77.124;2023-10-13T05:13:42;99993.11;;;18.14;49.09
49657;BME280;71194;38.900;-77.124;2023-10-13T05:16:10;99986.14;;;18.33;48.35
49657;BME280;71194;38.900;-77.124;2023-10-13T05:18:38;99984.99;;;18.47;47.81
49657;BME280;71194;38.900;-77.124;2023-10-13T05:21:06;99985.97;;;18.64;47.55
49657;BME280;71194;38.900;-77.124;2023-10-13T05:23:34;99987.80;;;18.72;47.27
49657;BME280;71194;38.900;-77.124;2023-10-13T05:26:02;99987.99;;;18.73;47.05
49657;BME280;71194;38.900;-77.124;2023-10-13T05:28:31;99987.45;;;18.79;47.35
49657;BME280;71194;38.900;-77.124;2023-10-13T05:30:59;99983.47;;;18.81;47.23
49657;BME280;71194;38.900;-77.124;2023-10-13T05:33:27;99989.22;;;18.63;47.19
49657;BME280;71194;38.900;-77.124;2023-10-13T05:35:56;99993.39;;;18.62;47.21
49657;BME280;71194;38.900;-77.124;2023-10-13T05:38:23;99998.71;;;18.88;47.11
49657;BME280;71194;38.900;-77.124;2023-10-13T05:40:53;99999.45;;;18.64;46.83
49657;BME280;71194;38.900;-77.124;2023-10-13T05:43:21;99996.62;;;18.60;47.89
49657;BME280;71194;38.900;-77.124;2023-10-13T05:45:49;100002.12;;;17.83;49.01
49657;BME280;71194;38.900;-77.124;2023-10-13T05:48:17;100005.01;;;17.84;49.78
49657;BME280;71194;38.900;-77.124;2023-10-13T05:50:45;99998.95;;;17.93;49.92
49657;BME280;71194;38.900;-77.124;2023-10-13T05:53:13;99998.11;;;17.94;50.01
49657;BME280;71194;38.900;-77.124;2023-10-13T05:55:41;99998.48;;;18.07;50.00
49657;BME280;71194;38.900;-77.124;2023-10-13T05:58:09;100001.64;;;17.89;50.28
49657;BME280;71194;38.900;-77.124;2023-10-13T06:00:39;100002.25;;;17.65;50.55
49657;BME280;71194;38.900;-77.124;2023-10-13T06:03:07;100005.56;;;17.41;50.96
49657;BME280;71194;38.900;-77.124;2023-10-13T06:05:35;100003.44;;;17.92;51.15
49657;BME280;71194;38.900;-77.124;2023-10-13T06:08:04;100007.10;;;17.64;51.35
49657;BME280;71194;38.900;-77.124;2023-10-13T06:10:32;100006.42;;;17.91;51.30
49657;BME280;71194;38.900;-77.124;2023-10-13T06:13:00;100010.46;;;17.46;51.08
49657;BME280;71194;38.900;-77.124;2023-10-13T06:15:28;100013.33;;;17.46;50.89
49657;BME280;71194;38.900;-77.124;2023-10-13T06:17:56;100016.27;;;17.34;51.03
49657;BME280;71194;38.900;-77.124;2023-10-13T06:20:24;100019.52;;;17.44;51.08
49657;BME280;71194;38.900;-77.124;2023-10-13T06:22:51;100020.30;;;17.73;50.92
49657;BME280;71194;38.900;-77.124;2023-10-13T06:25:20;100018.22;;;17.65;50.90
49657;BME280;71194;38.900;-77.124;2023-10-13T06:27:47;100018.24;;;17.67;50.79
49657;BME280;71194;38.900;-77.124;2023-10-13T06:30:15;100011.78;;;17.35;50.64
49657;BME280;71194;38.900;-77.124;2023-10-13T06:32:43;100010.65;;;17.44;50.46
49657;BME280;71194;38.900;-77.124;2023-10-13T06:35:11;100007.36;;;17.71;50.35
49657;BME280;71194;38.900;-77.124;2023-10-13T06:37:39;100005.34;;;17.52;50.20
49657;BME280;71194;38.900;-77.124;2023-10-13T06:40:10;99999.72;;;17.59;49.65
49657;BME280;71194;38.900;-77.124;2023-10-13T06:42:39;99997.47;;;17.80;48.96
49657;BME280;71194;38.900;-77.124;2023-10-13T06:45:08;99993.88;;;17.84;48.82
49657;BME280;71194;38.900;-77.124;2023-10-13T06:47:36;99992.64;;;18.42;48.57
49657;BME280;71194;38.900;-77.124;2023-10-13T06:50:05;99994.04;;;17.95;48.49
49657;BME280;71194;38.900;-77.124;2023-10-13T06:52:33;99994.02;;;17.94;48.75
49657;BME280;71194;38.900;-77.124;2023-10-13T06:55:01;99992.50;;;17.80;48.69
49657;BME280;71194;38.900;-77.124;2023-10-13T06:57:28;99989.71;;;18.21;48.29
49657;BME280;71194;38.900;-77.124;2023-10-13T06:59:56;99993.18;;;18.12;47.87
49657;BME280;71194;38.900;-77.124;2023-10-13T07:02:24;99991.24;;;18.20;47.59
49657;BME280;71194;38.900;-77.124;2023-10-13T07:04:52;99987.89;;;18.01;47.37
49657;BME280;71194;38.900;-77.124;2023-10-13T07:07:20;99983.51;;;18.20;47.37
49657;BME280;71194;38.900;-77.124;2023-10-13T07:09:48;99985.83;;;18.04;47.74
49657;BME280;71194;38.900;-77.124;2023-10-13T07:12:16;99986.43;;;17.82;48.03
49657;BME280;71194;38.900;-77.124;2023-10-13T07:14:48;99983.99;;;18.03;47.99
49657;BME280;71194;38.900;-77.124;2023-10-13T07:17:16;99987.67;;;17.83;47.92
49657;BME280;71194;38.900;-77.124;2023-10-13T07:19:44;99986.88;;;17.81;47.92
49657;BME280;71194;38.900;-77.124;2023-10-13T07:22:12;99982.03;;;17.74;48.30
49657;BME280;71194;38.900;-77.124;2023-10-13T07:24:40;99977.73;;;17.88;48.45
49657;BME280;71194;38.900;-77.124;2023-10-13T07:27:08;99968.98;;;17.86;48.74
49657;BME280;71194;38.900;-77.124;2023-10-13T07:29:36;99969.68;;;17.72;48.74
49657;BME280;71194;38.900;-77.124;2023-10-13T07:32:04;99973.34;;;17.75;48.29
49657;BME280;71194;38.900;-77.124;2023-10-13T07:34:32;99977.32;;;17.69;48.28
49657;BME280;71194;38.900;-77.124;2023-10-13T07:37:00;99970.80;;;17.80;48.42
49657;BME280;71194;38.900;-77.124;2023-10-13T07:39:29;99972.60;;;17.35;48.80
49657;BME280;71194;38.900;-77.124;2023-10-13T07:41:56;99972.59;;;17.20;49.22
49657;BME280;71194;38.900;-77.124;2023-10-13T07:44:25;99968.18;;;17.29;49.84
49657;BME280;71194;38.900;-77.124;2023-10-13T07:46:53;99969.04;;;17.28;50.00
49657;BME280;71194;38.900;-77.124;2023-10-13T07:49:21;99975.13;;;17.29;50.12
49657;BME280;71194;38.900;-77.124;2023-10-13T07:51:49;99977.61;;;17.51;49.49
49657;BME280;71194;38.900;-77.124;2023-10-13T07:54:17;99988.94;;;17.24;49.11
49657;BME280;71194;38.900;-77.124;2023-10-13T07:56:45;99993.11;;;17.51;49.37
49657;BME280;71194;38.900;-77.124;2023-10-13T07:59:14;99994.14;;;17.46;49.10
49657;BME280;71194;38.900;-77.124;2023-10-13T08:01:41;99994.42;;;17.23;48.84
49657;BME280;71194;38.900;-77.124;2023-10-13T08:04:09;99998.25;;;17.23;48.66
49657;BME280;71194;38.900;-77.124;2023-10-13T08:06:37;99998.25;;;17.50;48.47
49657;BME280;71194;38.900;-77.124;2023-10-13T08:09:05;100003.46;;;17.41;48.51
49657;BME280;71194;38.900;-77.124;2023-10-13T08:11:33;100005.14;;;17.30;48.59
49657;BME280;71194;38.900;-77.124;2023-10-13T08:14:02;99998.39;;;16.88;48.79
49657;BME280;71194;38.900;-77.124;2023-10-13T08:16:30;99997.22;;;17.35;48.86
49657;BME280;71194;38.900;-77.124;2023-10-13T08:18:58;100001.41;;;17.07;48.93
49657;BME280;71194;38.900;-77.124;2023-10-13T08:21:26;100007.23;;;16.92;49.27
49657;BME280;71194;38.900;-77.124;2023-10-13T08:23:54;100010.19;;;17.14;49.61
49657;BME280;71194;38.900;-77.124;2023-10-13T08:26:23;100013.51;;;16.77;49.97
49657;BME280;71194;38.900;-77.124;2023-10-13T08:28:51;100012.52;;;16.86;50.37
49657;BME280;71194;38.900;-77.124;2023-10-13T08:31:19;100009.35;;;16.71;50.78
49657;BME280;71194;38.900;-77.124;2023-10-13T08:33:47;100011.39;;;16.36;51.22
49657;BME280;71194;38.900;-77.124;2023-10-13T08:36:15;100010.07;;;16.50;51.60
49657;BME280;71194;38.900;-77.124;2023-10-13T08:38:43;100009.86;;;16.39;51.96
49657;BME280;71194;38.900;-77.124;2023-10-13T08:41:14;100011.71;;;16.07;52.19
49657;BME280;71194;38.900;-77.124;2023-10-13T08:43:43;100018.16;;;16.25;52.29
49657;BME280;71194;38.900;-77.124;2023-10-13T08:46:11;100023.08;;;15.97;52.31
49657;BME280;71194;38.900;-77.124;2023-10-13T08:48:39;100023.69;;;16.46;52.31
49657;BME280;71194;38.900;-77.124;2023-10-13T08:51:06;100029.71;;;16.23;52.34
49657;BME280;71194;38.900;-77.124;2023-10-13T08:53:34;100030.29;;;16.25;52.29
49657;BME280;71194;38.900;-77.124;2023-10-13T08:56:03;100033.51;;;16.19;52.53
49657;BME280;71194;38.900;-77.124;2023-10-13T08:58:32;100035.49;;;16.20;52.71
49657;BME280;71194;38.900;-77.124;2023-10-13T09:01:00;100037.33;;;16.23;52.68
49657;BME280;71194;38.900;-77.124;2023-10-13T09:03:28;100035.08;;;16.14;52.98
49657;BME280;71194;38.900;-77.124;2023-10-13T09:05:56;100034.38;;;15.99;53.41
49657;BME280;71194;38.900;-77.124;2023-10-13T09:08:25;100034.46;;;15.96;53.69
49657;BME280;71194;38.900;-77.124;2023-10-13T09:10:58;100037.08;;;15.91;54.16
49657;BME280;71194;38.900;-77.124;2023-10-13T09:13:35;100043.67;;;16.00;54.83
49657;BME280;71194;38.900;-77.124;2023-10-13T09:16:10;100045.07;;;15.61;55.32
49657;BME280;71194;38.900;-77.124;2023-10-13T09:18:38;100041.95;;;15.82;55.71
49657;BME280;71194;38.900;-77.124;2023-10-13T09:21:06;100044.64;;;16.08;55.90
49657;BME280;71194;38.900;-77.124;2023-10-13T09:23:34;100051.73;;;15.40;56.18
49657;BME280;71194;38.900;-77.124;2023-10-13T09:26:06;100058.46;;;15.61;56.78
49657;BME280;71194;38.900;-77.124;2023-10-13T09:28:34;100060.44;;;15.73;56.81
49657;BME280;71194;38.900;-77.124;2023-10-13T09:31:02;100065.46;;;15.57;56.60
49657;BME280;71194;38.900;-77.124;2023-10-13T09:33:30;100072.45;;;15.48;56.75
49657;BME280;71194;38.900;-77.124;2023-10-13T09:35:58;100078.01;;;15.56;56.56
49657;BME280;71194;38.900;-77.124;2023-10-13T09:38:28;100083.86;;;15.57;56.27
49657;BME280;71194;38.900;-77.124;2023-10-13T09:40:57;100084.37;;;15.64;56.21
49657;BME280;71194;38.900;-77.124;2023-10-13T09:43:26;100091.58;;;15.59;56.25
49657;BME280;71194;38.900;-77.124;2023-10-13T09:45:59;100090.55;;;15.56;56.10
49657;BME280;71194;38.900;-77.124;2023-10-13T09:48:32;100089.90;;;15.56;55.94
49657;BME280;71194;38.900;-77.124;2023-10-13T09:51:03;100091.25;;;15.52;55.56
49657;BME280;71194;38.900;-77.124;2023-10-13T09:53:32;100096.01;;;15.43;54.93
49657;BME280;71194;38.900;-77.124;2023-10-13T09:56:06;100096.96;;;15.68;54.75
49657;BME280;71194;38.900;-77.124;2023-10-13T09:58:35;100102.66;;;15.90;54.63
49657;BME280;71194;38.900;-77.124;2023-10-13T10:01:05;100104.60;;;15.64;54.81
49657;BME280;71194;38.900;-77.124;2023-10-13T10:03:44;100103.38;;;15.38;54.79
49657;BME280;71194;38.900;-77.124;2023-10-13T10:06:22;100102.08;;;15.42;54.78
49657;BME280;71194;38.900;-77.124;2023-10-13T10:08:50;100101.16;;;15.66;54.95
49657;BME280;71194;38.900;-77.124;2023-10-13T10:11:30;100108.03;;;15.84;54.75
49657;BME280;71194;38.900;-77.124;2023-10-13T10:14:09;100110.33;;;15.55;54.79
49657;BME280;71194;38.900;-77.124;2023-10-13T10:16:56;100112.87;;;15.80;54.54
49657;BME280;71194;38.900;-77.124;2023-10-13T10:19:26;100114.17;;;15.53;54.14
49657;BME280;71194;38.900;-77.124;2023-10-13T10:22:02;100117.20;;;15.52;53.83
49657;BME280;71194;38.900;-77.124;2023-10-13T10:24:29;100124.36;;;15.21;53.23
49657;BME280;71194;38.900;-77.124;2023-10-13T10:26:57;100123.30;;;15.10;53.40
49657;BME280;71194;38.900;-77.124;2023-10-13T10:29:25;100126.85;;;15.56;53.13
49657;BME280;71194;38.900;-77.124;2023-10-13T10:31:52;100127.43;;;15.33;52.89
49657;BME280;71194;38.900;-77.124;2023-10-13T10:34:20;100135.35;;;15.53;52.56
49657;BME280;71194;38.900;-77.124;2023-10-13T10:36:57;100138.93;;;15.50;52.38
49657;BME280;71194;38.900;-77.124;2023-10-13T10:39:34;100145.88;;;15.04;52.14
49657;BME280;71194;38.900;-77.124;2023-10-13T10:42:11;100151.02;;;15.46;52.14
49657;BME280;71194;38.900;-77.124;2023-10-13T10:44:41;100150.87;;;15.70;52.18
49657;BME280;71194;38.900;-77.124;2023-10-13T10:47:11;100156.81;;;14.96;52.07
49657;BME280;71194;38.900;-77.124;2023-10-13T10:49:39;100159.68;;;15.38;52.34
49657;BME280;71194;38.900;-77.124;2023-10-13T10:52:10;100161.38;;;15.10;52.30
49657;BME280;71194;38.900;-77.124;2023-10-13T10:54:37;100162.12;;;15.34;52.06
49657;BME280;71194;38.900;-77.124;2023-10-13T10:57:05;100164.59;;;15.00;52.39
49657;BME280;71194;38.900;-77.124;2023-10-13T10:59:35;100173.32;;;15.24;52.32
49657;BME280;71194;38.900;-77.124;2023-10-13T11:02:03;100172.76;;;15.15;51.85
49657;BME280;71194;38.900;-77.124;2023-10-13T11:04:31;100177.16;;;15.37;51.85
49657;BME280;71194;38.900;-77.124;2023-10-13T11:06:59;100179.40;;;15.11;51.68
49657;BME280;71194;38.900;-77.124;2023-10-13T11:09:28;100181.77;;;14.83;51.84
49657;BME280;71194;38.900;-77.124;2023-10-13T11:11:56;100184.78;;;15.09;51.67
49657;BME280;71194;38.900;-77.124;2023-10-13T11:14:25;100181.75;;;15.19;51.77
49657;BME280;71194;38.900;-77.124;2023-10-13T11:16:54;100183.53;;;15.06;51.95
49657;BME280;71194;38.900;-77.124;2023-10-13T11:19:34;100190.69;;;15.04;52.31
49657;BME280;71194;38.900;-77.124;2023-10-13T11:22:11;100198.54;;;15.08;52.11
49657;BME280;71194;38.900;-77.124;2023-10-13T11:24:42;100205.84;;;15.18;51.82
49657;BME280;71194;38.900;-77.124;2023-10-13T11:27:15;100210.30;;;15.15;51.66
49657;BME280;71194;38.900;-77.124;2023-10-13T11:29:43;100210.47;;;15.12;51.72
49657;BME280;71194;38.900;-77.124;2023-10-13T11:32:11;100212.70;;;15.30;52.00
49657;BME280;71194;38.900;-77.124;2023-10-13T11:34:38;100210.15;;;15.20;51.57
49657;BME280;71194;38.900;-77.124;2023-10-13T11:37:06;100211.15;;;15.11;51.65
49657;BME280;71194;38.900;-77.124;2023-10-13T11:39:34;100216.82;;;15.19;51.74
49657;BME280;71194;38.900;-77.124;2023-10-13T11:42:02;100225.11;;;15.32;51.17
49657;BME280;71194;38.900;-77.124;2023-10-13T11:44:30;100234.45;;;15.21;51.66
49657;BME280;71194;38.900;-77.124;2023-10-13T11:46:58;100236.51;;;15.44;51.21
49657;BME280;71194;38.900;-77.124;2023-10-13T11:49:26;100238.16;;;15.54;50.88
49657;BME280;71194;38.900;-77.124;2023-10-13T11:51:54;100245.37;;;15.57;51.01
49657;BME280;71194;38.900;-77.124;2023-10-13T11:54:23;100247.61;;;15.62;51.16
49657;BME280;71194;38.900;-77.124;2023-10-13T11:56:51;100250.59;;;15.17;50.89
49657;BME280;71194;38.900;-77.124;2023-10-13T11:59:19;100254.34;;;15.76;50.71
49657;BME280;71194;38.900;-77.124;2023-10-13T12:01:47;100262.89;;;15.52;50.68
49657;BME280;71194;38.900;-77.124;2023-10-13T12:04:15;100266.40;;;15.77;51.00
49657;BME280;71194;38.900;-77.124;2023-10-13T12:06:43;100270.87;;;15.64;50.71
49657;BME280;71194;38.900;-77.124;2023-10-13T12:09:11;100279.27;;;15.81;50.58
49657;BME280;71194;38.900;-77.124;2023-10-13T12:11:39;100287.65;;;16.04;50.28
49657;BME280;71194;38.900;-77.124;2023-10-13T12:14:07;100296.82;;;16.09;50.39
49657;BME280;71194;38.900;-77.124;2023-10-13T12:16:35;100299.97;;;15.58;50.68
49657;BME280;71194;38.900;-77.124;2023-10-13T12:19:03;100306.96;;;15.75;50.35
49657;BME280;71194;38.900;-77.124;2023-10-13T12:21:31;100308.93;;;16.07;50.25
49657;BME280;71194;38.900;-77.124;2023-10-13T12:23:59;100319.26;;;16.29;50.42
49657;BME280;71194;38.900;-77.124;2023-10-13T12:26:27;100318.53;;;15.88;50.24
49657;BME280;71194;38.900;-77.124;2023-10-13T12:28:54;100319.03;;;15.84;50.48
49657;BME280;71194;38.900;-77.124;2023-10-13T12:31:22;100310.73;;;16.12;49.88
49657;BME280;71194;38.900;-77.124;2023-10-13T12:33:50;100304.97;;;16.01;49.57
49657;BME280;71194;38.900;-77.124;2023-10-13T12:36:18;100315.19;;;15.88;50.53
49657;BME280;71194;38.900;-77.124;2023-10-13T12:38:46;100314.60;;;16.03;50.45
49657;BME280;71194;38.900;-77.124;2023-10-13T12:41:13;100318.73;;;16.26;49.91
49657;BME280;71194;38.900;-77.124;2023-10-13T12:43:41;100313.21;;;16.18;50.13